Time;durP1;ratioP1;P1;durP2;ratioP2;P2;SDS_P1;SDS_P2;PMS_P1;PMS_P2;Temp;Humidity;BMP_temperature;BMP_pressure;BME280_temperature;BME280_humidity;BME280_pressure;Samples;Min_cycle;Max_cycle;Signal;HPM_P1;HPM_P2
2022/06/03 00:01:49;;;;;;;1999.90;999.90;;;;;;;16.33;100.00;95178.34;5058541;28;20201;-60
2022/06/03 00:04:37;;;;;;;1999.90;999.90;;;;;;;16.32;100.00;95179.56;5058918;28;20246;-62
2022/06/03 00:07:31;;;;;;;1999.90;999.90;;;;;;;16.26;100.00;95186.88;5058464;28;20193;-61
2022/06/03 00:10:26;;;;;;;1999.90;999.90;;;;;;;16.19;100.00;95181.59;5058490;28;20217;-60
2022/06/03 00:12:57;;;;;;;1999.90;999.90;;;;;;;16.11;100.00;95240.88;5059358;28;20279;-60
2022/06/03 00:16:03;;;;;;;1999.90;999.90;;;;;;;16.09;100.00;95237.81;5058779;28;20195;-61
2022/06/03 00:18:29;;;;;;;1999.90;999.90;;;;;;;16.03;100.00;95228.53;5058239;28;20201;-55
2022/06/03 00:21:07;;;;;;;1999.90;999.90;;;;;;;15.92;100.00;95228.13;5058734;28;20197;-55
2022/06/03 00:24:06;;;;;;;1999.90;999.90;;;;;;;15.81;100.00;95233.19;5058692;28;20255;-56
2022/06/03 00:26:57;;;;;;;1999.90;999.90;;;;;;;15.82;100.00;95233.97;5058582;28;20193;-55
2022/06/03 00:29:47;;;;;;;1999.90;999.90;;;;;;;15.77;100.00;95227.00;5058195;28;20197;-53
2022/06/03 00:32:31;;;;;;;1999.90;999.90;;;;;;;15.72;100.00;95213.81;5058725;28;20279;-56
2022/06/03 00:35:06;;;;;;;1999.90;999.90;;;;;;;15.72;100.00;95229.53;5058086;28;20189;-56
2022/06/03 00:38:00;;;;;;;1999.90;999.90;;;;;;;15.61;100.00;95232.63;5076084;28;20262;-60
2022/06/03 00:41:05;;;;;;;1999.90;999.90;;;;;;;15.64;100.00;95223.50;5058534;28;20239;-59
2022/06/03 00:43:41;;;;;;;1999.90;999.90;;;;;;;15.58;100.00;95230.75;4959146;28;20243;-60
2022/06/03 00:46:42;;;;;;;1999.90;999.90;;;;;;;15.56;100.00;95222.16;4959364;28;20200;-59
2022/06/03 00:49:07;;;;;;;1999.90;999.90;;;;;;;15.50;100.00;95212.91;5035752;28;20616;-59
2022/06/03 00:52:09;;;;;;;1999.90;999.90;;;;;;;15.47;100.00;95202.78;5057785;28;20185;-55
2022/06/03 00:54:59;;;;;;;1999.90;999.90;;;;;;;15.43;100.00;95207.63;5058197;28;20185;-57
2022/06/03 00:57:49;;;;;;;1999.90;999.90;;;;;;;15.42;100.00;95208.84;5058256;28;20191;-56
2022/06/03 01:00:14;;;;;;;1999.90;999.90;;;;;;;15.47;100.00;95208.28;5058500;28;20174;-56
2022/06/03 01:02:55;;;;;;;1999.90;999.90;;;;;;;15.46;100.00;95209.50;5057449;28;20181;-57
2022/06/03 01:05:31;;;;;;;1999.90;999.90;;;;;;;15.47;100.00;95208.28;5058168;28;20684;-56
2022/06/03 01:08:36;;;;;;;1999.90;999.90;;;;;;;15.45;100.00;95213.44;5057385;28;20188;-57
2022/06/03 01:11:14;;;;;;;1999.90;999.90;;;;;;;15.45;100.00;95205.19;5003219;28;20227;-61
2022/06/03 01:13:50;;;;;;;1999.90;999.90;;;;;;;15.46;100.00;95203.22;5057589;28;20213;-56
2022/06/03 01:16:37;;;;;;;1999.90;999.90;;;;;;;15.46;100.00;95206.75;5058175;28;20188;-56
2022/06/03 01:19:08;;;;;;;1999.90;999.90;;;;;;;15.41;100.00;95199.03;5057194;28;20288;-53
2022/06/03 01:21:48;;;;;;;1999.90;999.90;;;;;;;15.35;100.00;95199.97;5057422;28;20189;-55
2022/06/03 01:24:38;;;;;;;1999.90;999.90;;;;;;;15.42;100.00;95194.28;5057474;28;20193;-57
2022/06/03 01:27:25;;;;;;;1999.90;999.90;;;;;;;15.43;100.00;95196.59;5057147;28;20275;-52
2022/06/03 01:30:08;;;;;;;1999.90;999.90;;;;;;;15.43;100.00;95196.59;5057115;28;20277;-59
2022/06/03 01:33:17;;;;;;;1999.90;999.90;;;;;;;15.33;100.00;95199.63;5057162;28;20224;-61
2022/06/03 01:35:54;;;;;;;1999.90;999.90;;;;;;;15.22;100.00;95196.41;5056712;28;20189;-59
2022/06/03 01:38:25;;;;;;;1999.90;999.90;;;;;;;15.34;100.00;95204.69;5074827;28;20290;-59
2022/06/03 01:41:36;;;;;;;1999.90;999.90;;;;;;;15.22;100.00;95202.72;5057072;28;20196;-58
2022/06/03 01:44:23;;;;;;;1999.90;999.90;;;;;;;15.17;100.00;95199.72;5056959;28;20196;-59
2022/06/03 01:47:10;;;;;;;1999.90;999.90;;;;;;;15.15;100.00;95205.66;5056926;28;20197;-67
2022/06/03 01:50:09;;;;;;;1999.90;999.90;;;;;;;15.11;100.00;95195.97;5056894;28;20335;-61
2022/06/03 01:52:40;;;;;;;1999.90;999.90;;;;;;;15.07;100.00;95204.31;5056964;28;20638;-61
2022/06/03 01:55:25;;;;;;;1999.90;999.90;;;;;;;15.35;100.00;95195.28;5057058;28;20193;-60
2022/06/03 01:58:19;;;;;;;1999.90;999.90;;;;;;;15.52;100.00;95185.72;5057083;28;20193;-60
2022/06/03 02:01:41;;;;;;;1999.90;999.90;;;;;;;15.41;100.00;95181.75;5056841;28;20242;-60
2022/06/03 02:04:16;;;;;;;1999.90;999.90;;;;;;;15.59;100.00;95193.75;4957914;28;20804;-61
2022/06/03 02:07:10;;;;;;;1999.90;999.90;;;;;;;15.41;100.00;95204.53;4974102;28;20207;-61
2022/06/03 02:10:00;;;;;;;1999.90;999.90;;;;;;;15.33;100.00;95214.16;5029112;28;20221;-59
2022/06/03 02:12:29;;;;;;;1999.90;999.90;;;;;;;15.42;100.00;95199.81;5056799;28;20697;-58
2022/06/03 02:15:09;;;;;;;1999.90;999.90;;;;;;;15.33;100.00;95194.91;5056394;28;20247;-59
2022/06/03 02:17:50;;;;;;;1999.90;999.90;;;;;;;15.15;100.00;95208.41;5056548;28;20217;-58
2022/06/03 02:20:18;;;;;;;1999.90;999.90;;;;;;;15.12;100.00;95212.03;5056811;28;20270;-60
2022/06/03 02:23:08;;;;;;;1999.90;999.90;;;;;;;15.13;100.00;95213.59;5074092;28;20197;-60
2022/06/03 02:25:43;;;;;;;1999.90;999.90;;;;;;;15.09;100.00;95207.44;5056806;28;20570;-55
2022/06/03 02:28:27;;;;;;;1999.90;999.90;;;;;;;14.97;100.00;95208.13;5057008;28;20193;-58
2022/06/03 02:31:14;;;;;;;1999.90;999.90;;;;;;;15.07;100.00;95207.06;5055797;28;20209;-59
2022/06/03 02:34:01;;;;;;;1999.90;999.90;;;;;;;14.99;100.00;95208.50;5056704;28;20189;-58
2022/06/03 02:36:53;;;;;;;1999.90;999.90;;;;;;;14.89;100.00;95206.81;5056616;28;20193;-58
2022/06/03 02:39:40;;;;;;;1999.90;999.90;;;;;;;15.01;100.00;95214.31;5056338;28;20192;-58
2022/06/03 02:42:36;;;;;;;1999.90;999.90;;;;;;;14.81;100.00;95204.69;5056794;28;20192;-59
2022/06/03 02:45:22;;;;;;;1999.90;999.90;;;;;;;14.77;100.00;95199.28;5056579;28;20197;-59
2022/06/03 02:48:14;;;;;;;1999.90;999.90;;;;;;;14.59;100.00;95210.00;5056214;28;20195;-59
2022/06/03 02:51:02;;;;;;;1999.90;999.90;;;;;;;14.62;100.00;95208.34;5056779;28;20213;-62
2022/06/03 02:54:21;;;;;;;1999.90;999.90;;;;;;;14.53;100.00;95206.22;5055994;28;20196;-59
2022/06/03 02:57:15;;;;;;;1999.90;999.90;;;;;;;14.46;100.00;95211.91;4957295;28;20210;-60
2022/06/03 03:00:01;;;;;;;1999.90;999.90;;;;;;;14.54;100.00;95210.53;4956659;28;20188;-62
2022/06/03 03:03:04;;;;;;;1999.90;999.90;;;;;;;14.48;100.00;95214.22;5035753;28;20208;-53
2022/06/03 03:05:57;;;;;;;1999.90;999.90;;;;;;;14.50;100.00;95220.81;5056223;28;20188;-52
2022/06/03 03:08:41;;;;;;;1999.90;999.90;;;;;;;14.56;100.00;95215.56;5056477;28;20200;-55
2022/06/03 03:11:31;;;;;;;1999.90;999.90;;;;;;;14.59;100.00;95220.97;5056333;28;20212;-52
2022/06/03 03:14:34;;;;;;;1999.90;999.90;;;;;;;14.66;100.00;95162.28;5055648;28;20280;-55
2022/06/03 03:17:45;;;;;;;1999.90;999.90;;;;;;;14.68;100.00;95162.66;5025944;28;20692;-54
2022/06/03 03:20:39;;;;;;;1999.90;999.90;;;;;;;14.72;100.00;95164.06;5056094;28;20192;-63
2022/06/03 03:23:16;;;;;;;1999.90;999.90;;;;;;;14.67;100.00;95161.06;5055845;28;20665;-54
2022/06/03 03:26:18;;;;;;;1999.90;999.90;;;;;;;14.73;100.00;95168.38;5056370;28;20654;-54
2022/06/03 03:29:09;;;;;;;1999.90;999.90;;;;;;;14.81;100.00;95150.47;5055789;28;20187;-57
2022/06/03 03:31:42;;;;;;;1999.90;999.90;;;;;;;14.86;100.00;95152.66;5055334;28;20189;-57
2022/06/03 03:34:38;;;;;;;1999.90;999.90;;;;;;;15.04;100.00;95150.19;5055443;28;20181;-56
2022/06/03 03:37:34;;;;;;;1999.90;999.90;;;;;;;15.22;100.00;95158.69;5055931;28;20253;-61
2022/06/03 03:40:11;;;;;;;1999.90;999.90;;;;;;;15.36;100.00;95147.28;5055940;28;20173;-55
2022/06/03 03:42:59;;;;;;;1999.90;999.90;;;;;;;15.67;100.00;95162.03;5055945;28;20199;-55
2022/06/03 03:45:34;;;;;;;1999.90;999.90;;;;;;;15.80;100.00;95171.06;5055499;28;20192;-55
2022/06/03 03:48:24;;;;;;;1999.90;999.90;;;;;;;15.93;100.00;95179.31;5055333;28;20184;-56
2022/06/03 03:51:16;;;;;;;1999.90;999.90;;;;;;;15.95;100.00;95191.44;5055164;28;20205;-56
2022/06/03 03:53:41;;;;;;;1999.90;999.90;;;;;;;16.05;100.00;95189.53;5017518;28;20189;-56
2022/06/03 03:56:25;;;;;;;1999.90;999.90;;;;;;;16.17;100.00;95200.53;5055010;28;20526;-61
2022/06/03 03:59:02;;;;;;;1999.90;999.90;;;;;;;16.21;100.00;95195.69;5055697;28;20211;-54
2022/06/03 04:01:33;;;;;;;1999.90;999.90;;;;;;;16.38;100.00;95194.31;5058733;28;20192;-55
2022/06/03 04:04:02;;;;;;;1999.90;999.90;;;;;;;16.77;100.00;95204.03;5058557;28;20185;-53
2022/06/03 04:06:45;;;;;;;1999.90;999.90;;;;;;;16.93;100.00;95212.13;5058486;28;20190;-57
2022/06/03 04:09:32;;;;;;;1999.90;999.90;;;;;;;17.40;100.00;95234.06;5058213;28;20177;-55
2022/06/03 04:12:05;;;;;;;1999.90;999.90;;;;;;;17.87;100.00;95240.19;5058640;28;20291;-57
2022/06/03 04:14:56;;;;;;;1999.90;999.90;;;;;;;18.34;100.00;95233.16;5058510;28;20188;-57
2022/06/03 04:17:49;;;;;;;1999.90;999.90;;;;;;;18.69;100.00;95228.94;5058037;28;20221;-66
2022/06/03 04:20:19;;;;;;;1999.90;999.90;;;;;;;18.82;100.00;95226.03;5058326;28;20200;-65
2022/06/03 04:23:13;;;;;;;1999.90;999.90;;;;;;;19.03;100.00;95227.91;5058066;28;20242;-66
2022/06/03 04:25:57;;;;;;;1999.90;999.90;;;;;;;18.86;100.00;95232.19;5022392;28;20203;-66
2022/06/03 04:28:42;;;;;;;1999.90;999.90;;;;;;;18.68;100.00;95246.00;5058200;28;20284;-66
2022/06/03 04:31:32;;;;;;;1999.90;999.90;;;;;;;19.10;100.00;95241.44;5058274;28;20217;-66
2022/06/03 04:34:15;;;;;;;1999.90;999.90;;;;;;;19.15;100.00;95243.56;5058579;28;20507;-57
2022/06/03 04:36:53;;;;;;;1999.90;999.90;;;;;;;19.38;100.00;95243.00;5057697;28;20201;-63
2022/06/03 04:39:32;;;;;;;1999.90;999.90;;;;;;;19.67;100.00;95237.72;5057944;28;20193;-63
2022/06/03 04:42:32;;;;;;;1999.90;999.90;;;;;;;20.12;100.00;95231.25;5058029;28;20196;-63
2022/06/03 04:45:35;;;;;;;1999.90;999.90;;;;;;;20.22;100.00;95227.97;5057786;28;20196;-62
2022/06/03 04:48:12;;;;;;;1999.90;999.90;;;;;;;20.72;100.00;95207.63;5057965;28;20189;-63
2022/06/03 04:51:04;;;;;;;1999.90;999.90;;;;;;;20.30;100.00;95179.25;5057552;28;20212;-62
2022/06/03 04:53:51;;;;;;;1999.90;999.90;;;;;;;19.90;100.00;95178.78;5057878;28;20192;-60
2022/06/03 04:56:32;;;;;;;1999.90;999.90;;;;;;;20.33;100.00;95171.97;5057268;28;20189;-59
2022/06/03 04:59:29;;;;;;;1999.90;999.90;;;;;;;20.76;100.00;95176.94;5057520;28;20284;-59
2022/06/03 05:02:23;;;;;;;1999.90;999.90;;;;;;;21.56;100.00;95167.09;5057951;28;20275;-59
2022/06/03 05:04:52;;;;;;;1999.90;999.90;;;;;;;22.32;100.00;95155.66;5048176;28;20200;-59
2022/06/03 05:07:26;;;;;;;1999.90;999.90;;;;;;;22.35;100.00;95174.19;5057609;28;20280;-59
2022/06/03 05:09:52;;;;;;;1999.90;999.90;;;;;;;22.82;100.00;95178.63;5057316;28;20299;-61
2022/06/03 05:12:52;;;;;;;1999.90;999.90;;;;;;;22.75;100.00;95183.84;5057937;28;20227;-68
2022/06/03 05:16:03;;;;;;;1999.90;999.90;;;;;;;21.88;100.00;95173.72;5058095;28;20200;-67
2022/06/03 05:18:56;;;;;;;1999.90;999.90;;;;;;;21.69;100.00;95161.25;5032233;28;20235;-67
2022/06/03 05:21:40;;;;;;;1999.90;999.90;;;;;;;21.61;100.00;95152.53;5057468;28;20193;-66
2022/06/03 05:24:23;;;;;;;1999.90;999.90;;;;;;;22.25;100.00;95153.28;5057090;28;20192;-69
2022/06/03 05:27:15;;;;;;;1999.90;999.90;;;;;;;22.72;100.00;95162.56;5057536;28;20196;-62
2022/06/03 05:30:02;;;;;;;1999.90;999.90;;;;;;;23.08;100.00;95161.97;5008651;28;20250;-56
2022/06/03 05:33:09;;;;;;;1999.90;999.90;;;;;;;23.82;100.00;95164.47;5016961;28;20193;-57
2022/06/03 05:36:11;;;;;;;1999.90;999.90;;;;;;;23.63;100.00;95170.91;5016239;28;20190;-57
2022/06/03 05:39:14;;;;;;;1999.90;999.90;;;;;;;24.45;100.00;95187.56;5016780;28;20214;-56
2022/06/03 05:45:02;;;;;;;1999.90;999.90;;;;;;;25.38;99.24;95201.22;5033048;28;20274;-58
2022/06/03 05:47:43;;;;;;;1999.90;999.90;;;;;;;25.44;96.12;95204.81;4996928;28;20206;-57
2022/06/03 05:50:14;;;;;;;1999.90;999.90;;;;;;;26.32;91.08;95224.53;4996887;28;20317;-63
2022/06/03 05:52:58;;;;;;;1999.90;999.90;;;;;;;25.97;88.01;95235.47;4996780;28;20206;-65
2022/06/03 05:55:48;;;;;;;1999.90;999.90;;;;;;;26.29;88.64;95245.16;4996656;28;20203;-63
2022/06/03 05:58:14;;;;;;;1999.90;999.90;;;;;;;26.47;86.28;95255.84;5013273;28;20198;-61
2022/06/03 06:00:43;;;;;;;1999.90;999.90;;;;;;;26.57;84.91;95259.91;5003492;28;20203;-61
2022/06/03 06:03:27;;;;;;;1999.90;999.90;;;;;;;27.09;84.72;95255.25;5016030;28;20194;-61
2022/06/03 06:06:07;;;;;;;1999.90;999.90;;;;;;;28.23;74.55;95293.81;5016654;28;20193;-53
2022/06/03 06:08:47;;;;;;;1999.90;999.90;;;;;;;27.70;76.56;95300.72;5016301;28;20186;-51
2022/06/03 06:11:26;;;;;;;1999.90;999.90;;;;;;;28.14;75.95;95300.50;5016295;28;20248;-51
2022/06/03 06:14:18;;;;;;;1999.90;999.90;;;;;;;28.19;74.74;95322.16;5016205;28;20194;-48
2022/06/03 06:16:45;;;;;;;1999.90;999.90;;;;;;;28.47;73.56;95324.06;5016152;28;20220;-52
2022/06/03 06:19:20;;;;;;;1999.90;999.90;;;;;;;27.76;73.86;95329.50;5048711;28;20204;-53
2022/06/03 06:22:17;;;;;;;1999.90;999.90;;;;;;;26.72;82.62;95299.69;5056074;28;20180;-47
2022/06/03 06:25:20;;;;;;;1999.90;999.90;;;;;;;26.72;83.32;95299.69;5036806;28;20201;-68
2022/06/03 06:27:57;;;;;;;1999.90;999.90;;;;;;;26.24;84.57;95299.16;5056408;28;20181;-57
2022/06/03 06:31:01;;;;;;;1999.90;999.90;;;;;;;25.31;91.36;95285.63;5056078;28;20204;-59
2022/06/03 06:33:49;;;;;;;1999.90;999.90;;;;;;;24.59;95.68;95273.22;5055305;28;20634;-60
2022/06/03 06:36:51;;;;;;;1999.90;999.90;;;;;;;24.24;100.00;95253.13;5056119;28;20181;-60
2022/06/03 06:39:39;;;;;;;1999.90;999.90;;;;;;;25.13;95.75;95269.25;5056033;28;20199;-60
2022/06/03 06:42:20;;;;;;;1999.90;999.90;;;;;;;27.53;79.14;95327.34;5056081;28;20290;-66
2022/06/03 06:45:08;;;;;;;1999.90;999.90;;;;;;;27.34;76.59;95346.78;5056658;28;20189;-58
2022/06/03 06:48:03;;;;;;;1999.90;999.90;;;;;;;26.63;81.43;95333.59;5056247;28;20185;-57
2022/06/03 06:50:40;;;;;;;1999.90;999.90;;;;;;;26.03;83.73;95330.69;5055722;28;20274;-57
2022/06/03 06:53:14;;;;;;;1999.90;999.90;;;;;;;25.62;86.60;95321.09;5056403;28;20181;-57
2022/06/03 06:56:09;;;;;;;1999.90;999.90;;;;;;;25.57;87.54;95314.22;5056107;28;20250;-57
2022/06/03 06:58:45;;;;;;;1999.90;999.90;;;;;;;25.79;84.79;95319.91;5055971;28;20197;-56
2022/06/03 07:01:16;;;;;;;1999.90;999.90;;;;;;;25.20;90.15;95307.91;5056135;28;20202;-57
2022/06/03 07:03:51;;;;;;;1999.90;999.90;;;;;;;25.51;88.80;95312.66;5055682;28;20193;-61
2022/06/03 07:06:31;;;;;;;1999.90;999.90;;;;;;;24.98;93.25;95296.59;5055726;28;20180;-61
2022/06/03 07:09:31;;;;;;;1999.90;999.90;;;;;;;25.27;93.51;95285.06;5055735;28;20279;-61
2022/06/03 07:12:07;;;;;;;1999.90;999.90;;;;;;;28.25;76.98;95342.56;5055899;28;20192;-61
2022/06/03 07:14:56;;;;;;;1999.90;999.90;;;;;;;28.71;71.33;95347.41;5055719;28;20188;-61
2022/06/03 07:20:39;;;;;;;1999.90;999.90;;;;;;;29.73;63.13;95353.88;5073390;28;20195;-59
2022/06/03 07:23:14;;;;;;;1999.90;999.90;;;;;;;30.12;64.46;95339.28;5055866;28;20215;-59
2022/06/03 07:25:54;;;;;;;1999.90;999.90;;;;;;;29.52;64.59;95326.66;5055689;28;20174;-59
2022/06/03 07:28:38;;;;;;;1999.90;999.90;;;;;;;30.45;61.59;95338.84;5055940;28;20187;-57
2022/06/03 07:31:17;;;;;;;1999.90;999.90;;;;;;;30.16;61.07;95337.69;5055874;28;20193;-59
2022/06/03 07:34:01;;;;;;;1999.90;999.90;;;;;;;31.52;56.91;95349.38;5055172;28;20183;-59
2022/06/03 07:36:46;;;;;;;1999.90;999.90;;;;;;;32.16;56.06;95350.69;5059146;28;20189;-54
2022/06/03 07:39:29;;;;;;;1999.90;999.90;;;;;;;32.23;53.82;95350.00;5059010;28;20185;-49
2022/06/03 07:42:04;;;;;;;1999.90;999.90;;;;;;;33.05;50.42;95355.84;5059179;28;20261;-47
2022/06/03 07:44:42;;;;;;;1999.90;999.90;;;;;;;32.63;49.49;95348.59;5076594;28;20172;-49
2022/06/03 07:47:08;;;;;;;1999.90;999.90;;;;;;;32.38;51.11;95344.56;5059003;28;20192;-44
2022/06/03 07:49:36;;;;;;;1999.90;999.90;;;;;;;31.99;52.79;95352.31;5058786;28;20211;-45
2022/06/03 07:52:20;;;;;;;1999.90;999.90;;;;;;;31.69;53.55;95347.00;5058656;28;20181;-46
2022/06/03 07:54:56;;;;;;;1999.90;999.90;;;;;;;32.48;50.47;95342.78;5059376;28;20219;-59
2022/06/03 07:57:25;;;;;;;1999.90;999.90;;;;;;;32.23;51.92;95341.50;5059385;28;20180;-61
2022/06/03 07:59:56;;;;;;;1999.90;999.90;;;;;;;32.36;50.79;95335.09;5058821;28;20185;-62
2022/06/03 08:02:23;;;;;;;1999.90;999.90;;;;;;;32.35;52.01;95344.91;5058921;28;20189;-60
2022/06/03 08:05:11;;;;;;;1999.90;999.90;;;;;;;32.00;53.50;95348.19;5058679;28;20178;-61
2022/06/03 08:13:17;;;;;;;1999.90;999.90;;;;;;;32.71;50.74;95340.97;5076711;28;20204;-58
2022/06/03 08:15:57;;;;;;;1999.90;999.90;;;;;;;32.13;50.94;95339.69;5058798;28;20185;-63
2022/06/03 08:18:27;;;;;;;1999.90;999.90;;;;;;;32.21;48.80;95341.31;5058474;28;20209;-62
2022/06/03 08:21:02;;;;;;;1999.90;999.90;;;;;;;32.72;49.40;95339.66;5076069;28;20204;-62
2022/06/03 08:23:30;;;;;;;1999.90;999.90;;;;;;;32.83;48.91;95342.25;5058338;28;20184;-62
2022/06/03 08:25:59;;;;;;;1999.90;999.90;;;;;;;32.95;48.14;95343.50;5058574;28;20189;-62
2022/06/03 08:28:31;;;;;;;1999.90;999.90;;;;;;;33.14;47.12;95337.63;5058474;28;20227;-63
2022/06/03 08:31:01;;;;;;;1999.90;999.90;;;;;;;32.96;46.86;95336.50;5058066;28;20231;-54
2022/06/03 08:33:47;;;;;;;1999.90;999.90;;;;;;;32.39;47.87;95326.28;5058383;28;20177;-59
2022/06/03 08:36:26;;;;;;;1999.90;999.90;;;;;;;31.03;51.95;95329.19;5057753;28;20223;-57
2022/06/03 08:38:54;;;;;;;1999.90;999.90;;;;;;;32.93;48.96;95320.66;5058133;28;20188;-59
2022/06/03 08:41:38;;;;;;;1999.90;999.90;;;;;;;34.17;45.14;95326.81;5058060;28;20246;-58
2022/06/03 08:44:29;;;;;;;1999.90;999.90;;;;;;;33.60;48.53;95309.09;5058024;28;20279;-58
2022/06/03 08:47:18;;;;;;;1999.90;999.90;;;;;;;32.86;49.47;95318.50;4997573;28;20199;-58
2022/06/03 08:49:50;;;;;;;1999.90;999.90;;;;;;;32.81;49.16;95325.00;4997391;28;20301;-49
2022/06/03 08:52:22;;;;;;;1999.90;999.90;;;;;;;33.39;48.98;95316.88;4997724;28;20218;-49
2022/06/03 08:54:58;;;;;;;1999.90;999.90;;;;;;;33.00;49.21;95325.59;4997751;28;20188;-50
2022/06/03 08:57:47;;;;;;;1999.90;999.90;;;;;;;31.87;52.37;95323.56;5013988;28;20197;-47
2022/06/03 09:00:16;;;;;;;1999.90;999.90;;;;;;;32.25;51.71;95313.47;4997711;28;20321;-54
2022/06/03 09:03:03;;;;;;;1999.90;999.90;;;;;;;32.37;51.96;95314.00;4997468;28;20202;-52
2022/06/03 09:05:45;;;;;;;1999.90;999.90;;;;;;;32.21;51.90;95318.69;4997577;28;20198;-49
2022/06/03 09:08:26;;;;;;;1999.90;999.90;;;;;;;33.16;48.88;95324.44;4997371;28;20188;-63
2022/06/03 09:11:03;;;;;;;1999.90;999.90;;;;;;;32.08;50.17;95327.19;5013701;28;20246;-62
2022/06/03 09:13:41;;;;;;;1999.90;999.90;;;;;;;32.61;49.72;95328.59;5014020;28;20206;-61
2022/06/03 09:16:10;;;;;;;1999.90;999.90;;;;;;;32.56;49.23;95337.97;4997042;28;20190;-61
2022/06/03 09:18:46;;;;;;;1999.90;999.90;;;;;;;32.08;51.47;95321.53;5044350;28;20219;-61
2022/06/03 09:21:15;;;;;;;1999.90;999.90;;;;;;;32.24;51.94;95328.91;5057316;28;20181;-60
2022/06/03 09:23:45;;;;;;;1999.90;999.90;;;;;;;32.14;51.76;95327.84;5057103;28;20277;-60
2022/06/03 09:26:28;;;;;;;1999.90;999.90;;;;;;;31.76;53.14;95318.09;5057221;28;20209;-53
2022/06/03 09:28:55;;;;;;;1999.90;999.90;;;;;;;32.68;49.39;95316.59;5057559;28;20173;-51
2022/06/03 09:31:22;;;;;;;1999.90;999.90;;;;;;;31.41;51.75;95315.69;5057677;28;20205;-57
2022/06/03 09:33:48;;;;;;;1999.90;999.90;;;;;;;31.44;52.28;95303.31;5057140;28;20181;-55
2022/06/03 09:36:18;;;;;;;1999.90;999.90;;;;;;;32.51;50.52;95304.91;5057271;28;20220;-53
2022/06/03 09:38:57;;;;;;;1999.90;999.90;;;;;;;32.31;50.97;95291.50;5057439;28;20268;-52
2022/06/03 09:41:27;;;;;;;1999.90;999.90;;;;;;;31.44;52.82;95291.25;5057751;28;20189;-54
2022/06/03 09:43:55;;;;;;;1999.90;999.90;;;;;;;31.36;52.27;95296.81;5074841;28;20180;-70
2022/06/03 09:46:23;;;;;;;1999.90;999.90;;;;;;;30.79;56.07;95272.16;5057105;28;20283;-50
2022/06/03 09:48:49;;;;;;;1999.90;999.90;;;;;;;31.58;54.75;95270.94;5056938;28;20177;-58
2022/06/03 09:51:55;;;;;;;1999.90;999.90;;;;;;;32.97;51.03;95270.09;5056433;28;20215;-57
2022/06/03 09:54:19;;;;;;;1999.90;999.90;;;;;;;31.52;52.05;95275.94;5074399;28;20260;-57
2022/06/03 09:56:48;;;;;;;1999.90;999.90;;;;;;;31.56;53.83;95270.72;5056123;28;20203;-60
2022/06/03 09:59:13;;;;;;;1999.90;999.90;;;;;;;30.53;54.35;95277.69;5056576;28;20267;-57
2022/06/03 10:01:39;;;;;;;1999.90;999.90;;;;;;;31.09;54.49;95269.81;5056509;28;20287;-57
2022/06/03 10:04:06;;;;;;;1999.90;999.90;;;;;;;31.04;56.39;95259.38;5056956;28;20244;-63
2022/06/03 10:06:50;;;;;;;1999.90;999.90;;;;;;;30.88;54.74;95257.66;5056683;28;20184;-47
2022/06/03 10:17:53;;;;;;;1999.90;999.90;;;;;;;31.37;57.27;95235.41;5074678;28;20224;-52
2022/06/03 10:20:19;;;;;;;1999.90;999.90;;;;;;;31.50;55.76;95246.72;5056530;28;20272;-63
2022/06/03 10:22:45;;;;;;;1999.90;999.90;;;;;;;30.58;58.96;95223.25;5056732;28;20230;-52
2022/06/03 10:25:10;;;;;;;1999.90;999.90;;;;;;;31.28;59.42;95219.66;5056051;28;20181;-65
2022/06/03 10:27:36;;;;;;;1999.90;999.90;;;;;;;32.35;55.15;95238.19;5056428;28;20177;-62
2022/06/03 10:30:05;;;;;;;1999.90;999.90;;;;;;;32.40;55.94;95236.50;5056709;28;20205;-66
2022/06/03 10:32:31;;;;;;;1999.90;999.90;;;;;;;31.99;57.78;95234.38;5056335;28;20181;-67
2022/06/03 10:35:28;;;;;;;1999.90;999.90;;;;;;;32.03;58.00;95229.13;5055907;28;20185;-68
2022/06/03 10:37:57;;;;;;;1999.90;999.90;;;;;;;31.24;58.64;95219.22;5056197;28;20185;-65
2022/06/03 10:40:26;;;;;;;1999.90;999.90;;;;;;;31.00;61.24;95223.00;5056429;28;20185;-60
2022/06/03 10:42:57;;;;;;;1999.90;999.90;;;;;;;31.40;60.62;95212.50;5056182;28;20185;-49
2022/06/03 10:45:40;;;;;;;1999.90;999.90;;;;;;;31.74;52.53;95213.31;5055997;28;20200;-54
2022/06/03 10:48:24;;;;;;;1999.90;999.90;;;;;;;32.60;53.67;95202.59;5056533;28;20266;-55
2022/06/03 10:50:50;;;;;;;1999.90;999.90;;;;;;;31.36;55.93;95211.31;5055918;28;20207;-53
2022/06/03 11:01:57;;;;;;;1999.90;999.90;;;;;;;31.40;58.82;95206.88;5073684;28;20207;-61
2022/06/03 11:04:37;;;;;;;1999.90;999.90;;;;;;;31.21;60.31;95214.69;5055877;28;20177;-61
2022/06/03 11:07:24;;;;;;;1999.90;999.90;;;;;;;30.87;58.88;95202.50;5055927;28;20176;-61
2022/06/03 11:09:58;;;;;;;1999.90;999.90;;;;;;;32.29;54.83;95202.81;5055002;28;20216;-64
2022/06/03 11:12:26;;;;;;;1999.90;999.90;;;;;;;32.17;54.01;95196.69;5055453;28;20173;-62
2022/06/03 11:14:52;;;;;;;1999.90;999.90;;;;;;;31.90;53.99;95189.59;5055573;28;20185;-64
2022/06/03 11:17:25;;;;;;;1999.90;999.90;;;;;;;31.24;56.25;95188.16;5055417;28;20266;-56
2022/06/03 11:19:56;;;;;;;1999.90;999.90;;;;;;;32.01;53.18;95199.91;5055495;28;20185;-54
2022/06/03 11:22:38;;;;;;;1999.90;999.90;;;;;;;32.95;51.34;95193.44;5055537;28;20185;-56
2022/06/03 11:25:21;;;;;;;1999.90;999.90;;;;;;;33.42;49.09;95191.09;5055649;28;20185;-56
2022/06/03 11:28:09;;;;;;;1999.90;999.90;;;;;;;33.06;49.77;95186.69;5055308;28;20189;-58
2022/06/03 11:30:44;;;;;;;1999.90;999.90;;;;;;;33.63;47.83;95194.63;5055588;28;20208;-57
2022/06/03 11:33:19;;;;;;;1999.90;999.90;;;;;;;33.46;45.13;95202.06;5055075;28;20195;-56
2022/06/03 11:35:50;;;;;;;1999.90;999.90;;;;;;;32.67;48.37;95190.53;5055566;28;20196;-62
2022/06/03 11:38:46;;;;;;;1999.90;999.90;;;;;;;32.31;50.26;95197.41;5055555;28;20173;-59
2022/06/03 11:41:19;;;;;;;1999.90;999.90;;;;;;;32.54;51.15;95193.47;5047480;28;20247;-60
2022/06/03 11:43:56;;;;;;;1999.90;999.90;;;;;;;32.75;48.38;95188.56;5055595;28;20239;-59
2022/06/03 11:46:35;;;;;;;1999.90;999.90;;;;;;;33.21;48.05;95187.56;5056408;28;20192;-59
2022/06/03 11:49:01;;;;;;;1999.90;999.90;;;;;;;31.74;50.88;95187.88;5055816;28;20188;-59
2022/06/03 11:51:27;;;;;;;1999.90;999.90;;;;;;;30.15;57.97;95178.34;5055155;28;20208;-60
2022/06/03 11:53:53;;;;;;;1999.90;999.90;;;;;;;30.50;58.21;95183.66;5055678;28;20239;-60
2022/06/03 11:56:25;;;;;;;1999.90;999.90;;;;;;;30.27;61.33;95176.09;5055376;28;20185;-61
2022/06/03 11:59:12;;;;;;;1999.90;999.90;;;;;;;30.04;61.59;95174.94;5055252;28;20188;-61
2022/06/03 12:01:50;;;;;;;1999.90;999.90;;;;;;;30.60;60.04;95181.16;5055052;28;20189;-61
2022/06/03 12:04:56;;;;;;;1999.90;999.90;;;;;;;30.30;57.36;95181.41;5054921;28;20217;-62
2022/06/03 12:07:49;;;;;;;1999.90;999.90;;;;;;;30.42;59.57;95190.47;5055734;28;20177;-62
2022/06/03 12:10:26;;;;;;;1999.90;999.90;;;;;;;30.30;59.34;95189.13;5054933;28;20351;-63
2022/06/03 12:13:17;;;;;;;1999.90;999.90;;;;;;;30.44;57.09;95185.03;5054952;28;20177;-64
2022/06/03 12:15:55;;;;;;;1999.90;999.90;;;;;;;29.96;59.23;95188.09;5054665;28;20275;-63
2022/06/03 12:18:32;;;;;;;1999.90;999.90;;;;;;;30.13;59.07;95171.69;5054804;28;20594;-62
2022/06/03 12:21:05;;;;;;;1999.90;999.90;;;;;;;30.59;55.91;95176.84;5056105;28;20195;-63
2022/06/03 12:23:37;;;;;;;1999.90;999.90;;;;;;;30.06;60.80;95166.69;5058578;28;20185;-63